• Join FlightAware (Why Join?)
  • Login
  • US Flag 
10:31AM EDT


 

Airport Tracker/Info


-or-


 

Live Flight TrackerFlight Track Log ✈ AWE2706 ✈ 21-Apr-2013 ✈ KCLT - KMHT

Flight Track Log - Related Links

Times and Time Zones

All times are in EDT time to prevent confusion due to time zone crossing. See the AWE2706 flight status page for this flight to view local times or setup timezone preferences in your user account.

Time Position Orientation Groundspeed Altitude Reporting Facility
EDT Latitude Longitude Course Direction KTS MPH feet Rate Location/Type
02:34PM 35.2389 -80.9414 72° East 170 196 2,000  Level Atlanta Center
02:35PM 35.2594 -80.9306 23° Northeast 175 201 2,700 1,560 Climbing Atlanta Center
02:36PM 35.3022 -80.8831 42° Northeast 258 297 4,400 2,280 Climbing Atlanta Center
02:36PM 35.2981 -80.8069 94° East 252 290 6,900 2,580 Climbing Atlanta Center
02:37PM 35.1558 -80.5962 29° Northeast  Level FlightAware Approximate
02:37PM 35.2917 -80.7181 95° East 269 310 9,100  Level Atlanta Center
02:38PM 35.2659 -80.5196 30° Northeast  Level FlightAware Approximate
02:38PM 35.3011 -80.6158 84° East 280 322 10,900  Level Atlanta Center
02:39PM 35.3450 -80.4227 72° East  Level FlightAware Approximate
02:39PM 35.3272 -80.5028 74° East 326 375 12,700  Level Atlanta Center
02:40PM 35.3556 -80.3972 72° East 350 403 14,400 1,920 Climbing Atlanta Center
02:42PM 35.4189 -80.1875 70° East 391 450 17,800 1,680 Climbing Washington Center
02:43PM 35.4553 -80.0544 71° East 391 450 18,900 1,260 Climbing Washington Center
02:44PM 35.4914 -79.9236 71° East 398 458 20,400 1,500 Climbing Washington Center
02:45PM 35.5256 -79.7800 74° East 415 478 21,900 1,440 Climbing Washington Center
02:46PM 35.5642 -79.6339 72° East 431 496 23,300 1,380 Climbing Washington Center
02:47PM 35.6000 -79.4978 72° East 453 521 24,700 1,380 Climbing Washington Center
02:48PM 35.6531 -79.3369 68° East 453 521 26,100 1,260 Climbing Washington Center
02:49PM 35.7139 -79.1914 63° Northeast 464 534 27,300 1,080 Climbing Washington Center
02:50PM 35.7744 -79.0431 63° Northeast 475 547 28,300 1,320 Climbing Washington Center
02:51PM 35.8331 -78.8919 64° Northeast 480 552 30,000 1,200 Climbing Washington Center
02:52PM 35.8889 -78.7583 63° Northeast 480 552 30,700 720 Climbing Washington Center
02:53PM 35.9594 -78.6122 59° Northeast 480 552 31,500 780 Climbing Washington Center
02:54PM 36.0319 -78.4661 58° Northeast 493 567 32,300 780 Climbing Washington Center
02:55PM 36.1042 -78.3169 59° Northeast 498 573 33,100 780 Climbing Washington Center
02:56PM 36.1744 -78.1650 60° Northeast 498 573 33,900 720 Climbing Washington Center
02:57PM 36.2464 -78.0181 59° Northeast 498 573 34,600 540 Climbing Washington Center
02:58PM 36.3181 -77.8656 60° Northeast 498 573 35,000 180 Climbing Washington Center
02:59PM 36.3919 -77.7078 60° Northeast 509 586 35,000  Level Washington Center
03:00PM 36.4636 -77.5497 61° Northeast 515 593 35,000  Level Washington Center
03:01PM 36.5369 -77.3911 60° Northeast 515 593 35,000  Level Washington Center
03:02PM 36.6122 -77.2378 59° Northeast 520 598 35,000  Level Washington Center
03:03PM 36.6831 -77.0811 61° Northeast 520 598 35,000  Level Washington Center
03:04PM 36.7825 -76.9483 47° Northeast 514 592 35,000  Level Washington Center
03:05PM 36.8986 -76.8464 35° Northeast 501 577 35,000  Level Washington Center
03:06PM 37.0142 -76.7442 35° Northeast 501 577 35,000  Level Washington Center
03:07PM 37.1300 -76.6364 37° Northeast 507 583 35,000  Level Washington Center
03:08PM 37.2475 -76.5311 35° Northeast 512 589 35,000  Level Washington Center
03:09PM 37.3758 -76.4097 37° Northeast 519 597 35,000  Level Washington Center
03:10PM 37.4953 -76.3039 35° Northeast 525 604 35,000  Level Washington Center
03:11PM 37.6106 -76.1947 37° Northeast 525 604 35,000  Level Washington Center
03:12PM 37.7322 -76.0906 34° Northeast 525 604 35,000  Level Washington Center
03:13PM 37.8472 -75.9783 38° Northeast 519 597 35,000  Level Washington Center
03:14PM 37.9683 -75.8658 36° Northeast 526 605 35,000  Level Washington Center
03:15PM 38.0833 -75.7553 37° Northeast 526 605 35,000  Level Washington Center
03:16PM 38.2022 -75.6444 36° Northeast 526 605 35,000  Level Washington Center
03:17PM 38.2983 -75.5547 36° Northeast 526 605 35,000  Level Washington Center
03:18PM 38.4442 -75.4778 22° Northeast 503 579 35,000  Level Washington Center
03:19PM 38.5817 -75.4192 18° North 503 579 35,000  Level Washington Center
03:20PM 38.7169 -75.3603 19° North 508 585 35,000  Level Washington Center
03:21PM 38.8525 -75.3039 18° North 508 585 35,000  Level Washington Center
03:22PM 38.9878 -75.2444 19° North 508 585 35,000  Level Washington Center
03:24PM 39.2625 -75.1306 18° North 508 585 35,000  Level Washington Center
03:25PM 39.3872 -75.0303 32° Northeast 508 585 35,000  Level Washington Center
03:26PM 39.5033 -74.9139 38° Northeast 520 598 35,000  Level Washington Center
03:27PM 39.6214 -74.7967 37° Northeast 525 604 35,000  Level Washington Center
03:28PM 39.7372 -74.6794 38° Northeast 530 610 35,000  Level Washington Center
03:29PM 39.8611 -74.5569 37° Northeast 543 625 35,000  Level New York Center
03:30PM 39.9686 -74.4517 37° Northeast 521 600 35,000  Level New York Center
03:31PM 40.0869 -74.3306 38° Northeast 532 612 35,000  Level New York Center
03:32PM 40.2147 -74.2419 28° Northeast 532 612 35,000 120 Level New York Center
03:34PM 40.4931 -74.1958 North 497 572 35,500 600 Climbing New York Center
03:35PM 40.6417 -74.1733 North 497 572 36,900 720 Climbing New York Center
03:36PM 40.7758 -74.1472 North 486 559 37,000  Climbing New York Center
03:38PM 40.9958 -74.1150 North 488 562 37,000 -60 Level Boston Center
03:39PM 41.1317 -74.0908 North 488 562 36,900  Descending Boston Center
03:40PM 41.2361 -74.0742 North 488 562 37,000  Climbing Boston Center
03:41PM 41.4033 -74.0453 North 483 556 37,000  Level Boston Center
03:42PM 41.5347 -74.0208 North 489 563 37,000 -660 Level Boston Center
03:43PM 41.6728 -73.9964 North 489 563 35,700 -1,320 Descending Boston Center
03:44PM 41.8022 -73.9744 North 484 557 34,400 -1,440 Descending Boston Center
03:45PM 41.9317 -73.9525 North 464 534 32,900 -1,500 Descending Boston Center
03:46PM 42.0592 -73.9306 North 464 534 31,400 -1,500 Descending Boston Center
03:47PM 42.1889 -73.9056 North 464 534 29,900 -1,920 Descending Boston Center
03:48PM 42.2903 -73.7900 40° Northeast 464 534 27,600 -2,460 Descending Boston Center
03:49PM 42.3464 -73.6228 66° East 440 506 25,000 -2,640 Descending Boston Center
03:50PM 42.3978 -73.4606 67° East 451 519 22,400 -2,520 Descending Boston Center
03:51PM 42.4514 -73.2983 66° East 457 526 20,000 -1,740 Descending Boston Center
03:52PM 42.5003 -73.1553 65° Northeast 444 511 19,000 -540 Descending Boston Center
03:53PM 42.5447 -73.0233 65° Northeast 425 489 19,000  Level Boston Center
03:54PM 42.5933 -72.8886 64° Northeast 430 495 19,000 -720 Level Boston Center
03:55PM 42.6333 -72.7222 72° East 425 489 17,600 -1,740 Descending Boston Center
03:56PM 42.6692 -72.5814 71° East 410 472 15,600 -1,800 Descending Boston Center
03:57PM 42.6922 -72.4797 73° East 384 442 14,000 -1,920 Descending Boston Center
03:58PM 42.7339 -72.3072 72° East 345 397 11,500 -1,680 Descending Boston Center
03:59PM 42.7586 -72.1942 73° East 319 367 10,400 -1,020 Descending Boston Center
04:00PM 42.7853 -72.0808 72° East 288 331 9,500 -660 Descending Boston Center
04:01PM 42.7872 -71.9817 88° East 277 319 9,100 -900 Descending Boston Center
04:02PM 42.7867 -71.8686 90° East 272 313 7,800 -1,380 Descending Boston Center
04:03PM 42.7883 -71.7781 89° East 264 304 6,400 -1,440 Descending Boston Center
04:04PM 42.7897 -71.6706 89° East 258 297 5,000 -1,200 Descending Boston Center
04:05PM 42.7911 -71.5856 89° East 251 289 4,100 -540 Descending Boston Center
04:06PM 42.7944 -71.4894 87° East 238 274 4,000 -600 Descending Boston Center
04:07PM 42.8128 -71.4297 67° East 200 230 3,000 -1,020 Descending Boston Center